Latest Coastal Weather Observations for Hobart

IDT60701

Issued at 6:32 am EST Wednesday 20 September 2017 (issued every 10 minutes, with the page automatically refreshed every 10 minutes)

About coastal observations | Map of coastal stations | Coastal observations for TAS | Marine services | Other Formats
Station Details ID: 094029 Name: HOBART (ELLERSLIE ROAD) Lat: -42.89 Lon: 147.33 Height: 50.5 m
Data from the previous 72 hours. | See also: Recent months at Hobart
Date/Time
EST
Temp
°C
Wind Pressure Rain since
9am
mm
Weather Cloud Vis
km
Sea
Height
m
Swell
Dir  Spd
kts
Gust
kts
hPa Trend Height
m
Period
s
Dir
20/06:30am 4.8 NNW 5 7 1017.3 - 0.6 - - - - - - -
20/06:00am 4.0 W 5 7 1017.0 - 0.6 - - - - - - -
20/05:30am 3.4 WNW 5 5 1016.8 - 0.6 - - - - - - -
20/05:00am 3.2 WSW 5 6 1016.9 - 0.6 - - - - - - -
20/04:30am 3.5 W 5 7 1016.8 - 0.6 - - - - - - -
20/04:00am 3.8 W 3 6 1016.6 - 0.6 - - - - - - -
20/03:30am 4.4 W 4 7 1016.8 - 0.6 - - - - - - -
20/03:00am 4.3 WSW 6 8 1017.0 - 0.6 - - - - - - -
20/02:30am 4.6 W 3 5 1017.1 - 0.6 - - - - - - -
20/02:00am 5.1 WNW 3 6 1017.1 - 0.6 - - - - - - -
20/01:30am 5.5 WSW 3 6 1017.3 - 0.6 - - - - - - -
20/01:00am 5.4 SW 4 6 1017.7 - 0.6 - - - - - - -
20/12:30am 5.3 W 5 6 1017.7 - 0.6 - - - - - - -
20/12:00am 6.0 WNW 4 6 1017.6 - 0.6 - - - - - - -
 
Date/Time
EST
Temp
°C
Wind Pressure Rain since
9am
mm
Weather Cloud Vis
km
Sea
Height
m
Swell
Dir  Spd
kts
Gust
kts
hPa Trend Height
m
Period
s
Dir
19/11:30pm 6.4 W 4 8 1017.7 - 0.6 - - - - - - -
19/11:00pm 6.5 W 6 11 1017.6 - 0.6 - - - - - - -
19/10:30pm 7.5 WNW 4 9 1017.4 - 0.6 - - - - - - -
19/10:00pm 7.6 W 6 12 1017.2 - 0.6 - - - - - - -
19/09:30pm 7.7 SW 6 14 1017.1 - 0.6 - - - - - - -
19/09:00pm 7.9 SW 7 17 1016.9 - 0.6 - - - - - - -
19/08:30pm 7.0 W 2 4 1016.7 - 0.6 - - - - - - -
19/08:00pm 7.3 SSW 6 10 1016.5 - 0.6 - - - - - - -
19/07:30pm 7.4 SSW 10 19 1016.1 - 0.6 - - - - - - -
19/07:00pm 7.8 SW 11 16 1015.7 - 0.6 - - - - - - -
19/06:30pm 8.2 SW 7 15 1014.9 - 0.6 - - - - - - -
19/06:00pm 8.0 WSW 5 12 1014.6 - 0.6 - - - - - - -
19/05:30pm 8.4 SW 7 15 1014.3 - 0.6 - - - - - - -
19/05:00pm 8.0 SSW 14 22 1013.8 - 0.6 - - - - - - -
19/04:30pm 9.3 WSW 10 17 1013.3 - 0.6 - - - - - - -
19/04:00pm 9.4 WSW 11 18 1013.0 - 0.6 - - - - - - -
19/03:30pm 8.9 SSW 10 21 1012.7 - 0.6 - - - - - - -
19/03:00pm 9.8 WSW 9 15 1012.1 - 0.6 Recent precip. - - - - - -
19/02:30pm 8.4 WSW 13 24 1011.8 - 0.6 - - - - - - -
19/02:00pm 11.2 W 15 25 1011.0 - 0.2 - - - - - - -
19/01:30pm 11.4 W 18 30 1010.7 - 0.2 - - - - - - -
19/01:24pm 11.2 W 15 27 1010.7 - 0.2 - - - - - - -
19/01:00pm 10.4 WSW 11 17 1010.6 - 0.2 - - - - - - -
19/12:30pm 9.9 SW 16 23 1010.4 - 0.2 - - - - - - -
19/12:06pm 9.1 SW 17 34 1010.3 - 0.2 - - - - - - -
19/12:00pm 10.3 SW 13 21 1010.1 - 0.0 - - - - - - -
19/11:32am 9.2 SW 15 27 1009.9 - 0.0 - - - - - - -
19/11:30am 9.9 WSW 12 23 1009.8 - 0.0 - - - - - - -
19/11:00am 11.0 SW 15 25 1009.6 - 0.0 - - - - - - -
19/10:40am 10.4 WSW 15 30 1009.2 - 0.0 - - - - - - -
19/10:30am 10.4 SW 9 16 1009.2 - 0.0 - - - - - - -
19/10:06am 7.4 SW 20 33 1009.1 - 0.0 - - - - - - -
19/10:00am 8.5 SSW 18 33 1008.6 - 0.0 - - - - - - -
19/09:30am 10.3 SW 20 37 1008.1 - 0.0 - - - - - - -
19/09:22am 10.4 SW 13 30 1007.9 - 0.0 - - - - - - -
19/09:00am 10.4 SW 14 23 1007.7 - 2.6 - - - - - - -
19/08:47am 9.7 SW 12 24 1007.4 - 2.6 - - - - - - -
19/08:30am 9.5 WSW 7 14 1007.0 - 2.6 - - - - - - -
19/08:00am 8.7 SW 10 16 1006.5 - 2.6 - - - - - - -
19/07:44am 8.4 SW 15 25 1006.0 - 2.6 - - - - - - -
19/07:30am 8.3 SW 12 19 1005.7 - 2.6 - - - - - - -
19/07:00am 9.0 SW 7 19 1005.1 - 2.6 - - - - - - -
19/06:30am 8.8 ESE 2 9 1004.0 - 2.4 - - - - - - -
19/06:00am 9.1 SW 7 13 1003.0 - 2.4 - - - - - - -
19/05:30am 8.8 W 7 11 1002.2 - 2.4 - - - - - - -
19/05:00am 8.7 NW 12 18 1000.7 - 2.4 - - - - - - -
19/04:30am 8.7 NW 10 15 1000.6 - 2.4 - - - - - - -
19/04:00am 8.4 NW 10 13 1000.2 - 2.4 - - - - - - -
19/03:30am 8.6 NW 10 13 999.7 - 2.4 - - - - - - -
19/03:00am 9.3 NW 10 13 999.5 - 0.6 Rain - - - - - -
19/02:30am 9.3 WNW 7 9 999.4 - 0.0 - - - - - - -
19/02:00am 9.7 NW 6 8 999.4 - 0.0 - - - - - - -
19/01:30am 9.9 NW 6 8 999.7 - 0.0 - - - - - - -
19/01:00am 10.7 NW 8 13 1000.2 - 0.0 - - - - - - -
19/12:30am 11.9 NNW 11 17 1000.7 - 0.0 - - - - - - -
19/12:00am 12.4 WNW 9 13 1000.6 - 0.0 - - - - - - -
 
Date/Time
EST
Temp
°C
Wind Pressure Rain since
9am
mm
Weather Cloud Vis
km
Sea
Height
m
Swell
Dir  Spd
kts
Gust
kts
hPa Trend Height
m
Period
s
Dir
18/11:30pm 12.4 NW 11 16 1000.5 - 0.0 - - - - - - -
18/11:00pm 12.5 NW 13 16 1000.9 - 0.0 - - - - - - -
18/10:30pm 12.8 NW 11 16 1001.0 - 0.0 - - - - - - -
18/10:00pm 13.0 NW 13 20 1001.2 - 0.0 - - - - - - -
18/09:30pm 13.7 NW 14 20 1001.3 - 0.0 - - - - - - -
18/09:00pm 13.3 NW 15 20 1001.5 - 0.0 - - - - - - -
18/08:30pm 13.4 NW 13 19 1001.8 - 0.0 - - - - - - -
18/08:04pm 14.0 NW 17 27 1001.8 - 0.0 - - - - - - -
18/08:00pm 14.0 NW 18 26 1001.8 - 0.0 - - - - - - -
18/07:30pm 14.1 NW 19 30 1001.8 - 0.0 - - - - - - -
18/07:01pm 14.0 NW 19 33 1001.6 - 0.0 - - - - - - -
18/07:00pm 13.9 NW 19 28 1001.7 - 0.0 - - - - - - -
18/06:30pm 14.1 NW 20 33 1001.8 - 0.0 - - - - - - -
18/06:00pm 14.5 NW 15 25 1001.9 - 0.0 - - - - - - -
18/05:32pm 15.0 NW 25 41 1001.2 - 0.0 - - - - - - -
18/05:30pm 15.0 NW 27 45 1001.1 - 0.0 - - - - - - -
18/05:17pm 15.3 NW 29 44 1001.1 - 0.0 - - - - - - -
18/05:16pm 15.3 NW 29 44 1001.0 - 0.0 - - - - - - -
18/05:04pm 15.7 NW 22 44 1001.0 - 0.0 - - - - - - -
18/05:00pm 15.6 NW 20 42 1001.1 - 0.0 - - - - - - -
18/04:30pm 16.1 NW 25 40 1000.7 - 0.0 - - - - - - -
18/04:14pm 16.2 NW 19 39 1000.8 - 0.0 - - - - - - -
18/04:02pm 16.0 WNW 19 29 1000.9 - 0.0 - - - - - - -
18/04:00pm 16.0 WNW 19 28 1000.9 - 0.0 - - - - - - -
18/03:30pm 16.7 WNW 21 35 1001.2 - 0.0 - - - - - - -
18/03:00pm 17.3 WNW 21 34 1001.4 - 0.0 - - - - - - -
18/02:30pm 19.0 NW 23 42 1001.7 - 0.0 - - - - - - -
18/02:29pm 19.0 NW 25 43 1001.7 - 0.0 - - - - - - -
18/02:27pm 19.0 NW 28 45 1001.7 - 0.0 - - - - - - -
18/02:21pm 19.0 NW 27 45 1001.6 - 0.0 - - - - - - -
18/02:20pm 19.0 NW 27 45 1001.5 - 0.0 - - - - - - -
18/02:00pm 19.5 NW 26 47 1001.3 - 0.0 - - - - - - -
18/01:30pm 20.3 NNW 22 38 1001.7 - 0.0 - - - - - - -
18/01:02pm 19.9 NNW 23 34 1002.3 - 0.0 - - - - - - -
18/01:00pm 20.0 NNW 23 30 1002.4 - 0.0 - - - - - - -
18/12:30pm 20.4 NNW 16 31 1003.0 - 0.0 - - - - - - -
18/12:00pm 19.8 N 18 29 1003.7 - 0.0 - - - - - - -
18/11:30am 18.6 NNW 21 33 1004.2 - 0.0 - - - - - - -
18/11:00am 18.3 NNW 23 33 1004.9 - 0.0 - - - - - - -
18/10:30am 18.0 NW 17 27 1005.5 - 0.0 - - - - - - -
18/10:26am 17.9 NW 17 27 1005.7 - 0.0 - - - - - - -
18/10:00am 17.1 N 13 21 1006.4 - 0.0 - - - - - - -
18/09:30am 15.1 NE 7 11 1007.2 - 0.0 - - - - - - -
18/09:00am 13.9 NNE 8 12 1008.0 - 0.0 - - - - - - -
18/08:30am 13.4 N 8 12 1008.6 - 0.0 - - - - - - -
18/08:00am 12.4 N 11 15 1009.0 - 0.0 - - - - - - -
18/07:30am 11.6 NNW 10 15 1009.1 - 0.0 - - - - - - -
18/07:00am 11.0 NW 12 17 1009.2 - 0.0 - - - - - - -
18/06:30am 10.9 NW 13 21 1009.6 - 0.0 - - - - - - -
18/06:00am 10.8 NNW 12 19 1009.9 - 0.0 - - - - - - -
18/05:30am 11.1 NW 13 17 1009.9 - 0.0 - - - - - - -
18/05:00am 11.0 NW 13 19 1010.0 - 0.0 - - - - - - -
18/04:30am 11.5 NW 14 21 1010.1 - 0.0 - - - - - - -
18/04:03am 12.1 NW 16 26 1010.2 - 0.0 - - - - - - -
18/04:00am 12.3 NW 17 26 1010.1 - 0.0 - - - - - - -
18/03:30am 12.4 WNW 17 29 1010.1 - 0.0 - - - - - - -
18/03:03am 12.4 NW 19 29 1010.3 - 0.0 - - - - - - -
18/03:00am 12.4 NW 20 29 1010.3 - 0.0 - - - - - - -
18/02:31am 12.5 NW 22 34 1010.2 - 0.0 - - - - - - -
18/02:30am 12.5 NW 22 30 1010.2 - 0.0 - - - - - - -
18/02:21am 12.5 NW 20 30 1010.3 - 0.0 - - - - - - -
18/02:00am 12.2 NW 17 23 1010.9 - 0.0 - - - - - - -
18/01:30am 12.8 NW 17 29 1011.4 - 0.0 - - - - - - -
18/01:18am 12.8 NW 15 26 1011.7 - 0.0 - - - - - - -
18/01:00am 12.6 NW 15 22 1012.0 - 0.0 - - - - - - -
18/12:44am 12.7 NW 16 26 1012.0 - 0.0 - - - - - - -
18/12:30am 12.8 NW 16 25 1012.2 - 0.0 - - - - - - -
18/12:21am 13.0 NW 15 25 1012.3 - 0.0 - - - - - - -
18/12:00am 13.1 NW 15 24 1012.3 - 0.0 - - - - - - -
 
Date/Time
EST
Temp
°C
Wind Pressure Rain since
9am
mm
Weather Cloud Vis
km
Sea
Height
m
Swell
Dir  Spd
kts
Gust
kts
hPa Trend Height
m
Period
s
Dir
17/11:47pm 13.2 NW 15 25 1012.3 - 0.0 - - - - - - -
17/11:30pm 13.0 NW 17 25 1012.6 - 0.0 - - - - - - -
17/11:00pm 12.5 NW 17 23 1012.8 - 0.0 - - - - - - -
17/10:30pm 12.0 NW 15 24 1013.3 - 0.0 - - - - - - -
17/10:00pm 12.1 NNW 12 18 1013.5 - 0.0 - - - - - - -
17/09:30pm 12.1 NNW 12 20 1013.7 - 0.0 - - - - - - -
17/09:00pm 12.2 NNW 11 17 1014.4 - 0.0 - - - - - - -
17/08:30pm 12.7 NNW 14 22 1014.2 - 0.0 - - - - - - -
17/08:00pm 13.2 NNW 15 22 1014.2 - 0.0 - - - - - - -
17/07:30pm 13.8 NNW 15 24 1014.2 - 0.0 - - - - - - -
17/07:00pm 14.2 NW 13 20 1014.1 - 0.0 - - - - - - -
17/06:30pm 13.4 NNE 3 8 1014.6 - 0.0 - - - - - - -
17/06:00pm 14.3 N 5 8 1014.6 - 0.0 - - - - - - -
17/05:30pm 15.0 N 6 10 1014.7 - 0.0 - - - - - - -
17/05:00pm 15.5 NNW 6 9 1014.9 - 0.0 - - - - - - -
17/04:30pm 16.1 NNW 4 6 1014.9 - 0.0 - - - - - - -
17/04:00pm 16.1 NW 6 8 1015.2 - 0.0 - - - - - - -
17/03:30pm 16.2 NW 9 12 1015.2 - 0.0 - - - - - - -
17/03:00pm 16.3 NW 12 15 1015.6 - 0.0 - - - - - - -
17/02:30pm 16.4 NW 10 13 1016.4 - 0.0 - - - - - - -
17/02:00pm 16.0 NW 7 11 1017.0 - 0.0 - - - - - - -
17/01:30pm 14.3 NNW 12 17 1017.7 - 0.0 - - - - - - -
17/01:00pm 14.7 N 10 16 1018.2 - 0.0 - - - - - - -
17/12:30pm 14.3 NNW 11 16 1019.0 - 0.0 - - - - - - -
17/12:00pm 13.7 N 12 19 1019.5 - 0.0 - - - - - - -
17/11:30am 12.7 NNW 13 19 1020.0 - 0.0 - - - - - - -
17/11:00am 12.5 NNW 12 17 1020.4 - 0.0 - - - - - - -
17/10:30am 11.2 NNW 12 16 1021.0 - 0.0 - - - - - - -
17/10:00am 10.8 N 11 16 1021.3 - 0.0 - - - - - - -
17/09:30am 10.3 NNW 9 14 1021.8 - 0.0 - - - - - - -
17/09:00am 9.4 NNW 7 11 1022.4 - 3.0 - - - - - - -
17/08:30am 7.6 NW 8 13 1022.5 - 3.0 - - - - - - -
17/08:00am 5.7 SW 3 4 1022.5 - 3.0 - - - - - - -
17/07:30am 4.2 SW 3 5 1022.7 - 3.0 - - - - - - -
17/07:00am 3.7 W 2 5 1022.5 - 3.0 - - - - - - -

Other Formats:

Comma delimited format used in spreadsheet applications
http://www.bom.gov.au/fwo/IDT60701/IDT60701.94970.axf

JavaScript Object Notation format (JSON) in row-major order
http://www.bom.gov.au/fwo/IDT60701/IDT60701.94970.json